Terminal Aerodrome Forecast
Issued by NWS Cleveland, OH

Home | Current Version | Previous Version | Graphics & Text | Print | Product List | Glossary Off
Versions: 1 2 3 4 5 6 7 8 9 10 11 12 13 14 15 16 17 18 19 20 21 22 23 24 25 26 27 28 29

000
FTUS41 KCLE 270855 AAA
TAFCLE
TAF AMD
KCLE 270855Z 2709/2812 15006KT P6SM VCSH SCT025 OVC040
      TEMPO 2711/2713 BKN025 OVC040
     FM271300 09008KT P6SM SCT025 OVC040
     FM271800 01006KT P6SM BKN050
     FM272100 01006KT P6SM SCT050 BKN120
     FM280500 12003KT P6SM BKN250=

USA.gov is the U.S. government's official web portal to all federal, state and local government web resources and services.